sensor_id;sensor_type;location;lat;lon;timestamp;pressure;altitude;pressure_sealevel;temperature;humidity
77583;BME280;66726;52.388;9.986;2023-06-10T00:00:26;101078.34;;;19.49;49.39
77583;BME280;66726;52.388;9.986;2023-06-10T00:02:59;101076.88;;;19.34;49.95
77583;BME280;66726;52.388;9.986;2023-06-10T00:05:33;101085.44;;;19.37;50.16
77583;BME280;66726;52.388;9.986;2023-06-10T00:08:08;101082.06;;;19.29;49.80
77583;BME280;66726;52.388;9.986;2023-06-10T00:10:43;101084.59;;;19.30;50.20
77583;BME280;66726;52.388;9.986;2023-06-10T00:13:17;101085.84;;;19.21;50.89
77583;BME280;66726;52.388;9.986;2023-06-10T00:15:50;101080.41;;;19.14;50.97
77583;BME280;66726;52.388;9.986;2023-06-10T00:18:24;101083.75;;;19.10;51.16
77583;BME280;66726;52.388;9.986;2023-06-10T00:20:58;101083.94;;;19.08;51.68
77583;BME280;66726;52.388;9.986;2023-06-10T00:23:36;101083.09;;;18.95;52.22
77583;BME280;66726;52.388;9.986;2023-06-10T00:26:10;101080.59;;;18.93;52.54
77583;BME280;66726;52.388;9.986;2023-06-10T00:28:43;101084.94;;;18.68;53.44
77583;BME280;66726;52.388;9.986;2023-06-10T00:31:17;101090.34;;;18.68;53.56
77583;BME280;66726;52.388;9.986;2023-06-10T00:33:51;101085.34;;;18.71;53.83
77583;BME280;66726;52.388;9.986;2023-06-10T00:36:25;101086.81;;;18.74;53.94
77583;BME280;66726;52.388;9.986;2023-06-10T00:38:58;101093.91;;;18.68;54.00
77583;BME280;66726;52.388;9.986;2023-06-10T00:41:32;101095.34;;;18.64;54.27
77583;BME280;66726;52.388;9.986;2023-06-10T00:44:05;101095.78;;;18.74;54.05
77583;BME280;66726;52.388;9.986;2023-06-10T00:46:39;101093.50;;;18.71;53.95
77583;BME280;66726;52.388;9.986;2023-06-10T00:49:13;101099.75;;;18.65;54.61
77583;BME280;66726;52.388;9.986;2023-06-10T00:51:47;101105.34;;;18.57;54.72
77583;BME280;66726;52.388;9.986;2023-06-10T00:54:21;101099.44;;;18.47;54.82
77583;BME280;66726;52.388;9.986;2023-06-10T00:56:55;101107.66;;;18.26;55.41
77583;BME280;66726;52.388;9.986;2023-06-10T00:59:28;101110.69;;;18.44;54.96
77583;BME280;66726;52.388;9.986;2023-06-10T01:02:03;101111.06;;;18.35;54.95
77583;BME280;66726;52.388;9.986;2023-06-10T01:04:36;101108.94;;;18.30;55.52
77583;BME280;66726;52.388;9.986;2023-06-10T01:07:20;101107.25;;;18.29;55.73
77583;BME280;66726;52.388;9.986;2023-06-10T01:10:04;101098.50;;;18.27;55.73
77583;BME280;66726;52.388;9.986;2023-06-10T01:12:46;101106.78;;;18.12;56.90
77583;BME280;66726;52.388;9.986;2023-06-10T01:15:24;101110.47;;;18.05;56.99
77583;BME280;66726;52.388;9.986;2023-06-10T01:18:03;101107.34;;;18.01;57.06
77583;BME280;66726;52.388;9.986;2023-06-10T01:20:38;101101.69;;;17.96;57.32
77583;BME280;66726;52.388;9.986;2023-06-10T01:23:14;101108.56;;;17.99;57.39
77583;BME280;66726;52.388;9.986;2023-06-10T01:25:56;101101.69;;;17.96;57.52
77583;BME280;66726;52.388;9.986;2023-06-10T01:28:41;101103.28;;;17.84;57.76
77583;BME280;66726;52.388;9.986;2023-06-10T01:31:27;101100.19;;;17.59;59.01
77583;BME280;66726;52.388;9.986;2023-06-10T01:34:10;101103.53;;;17.61;58.68
77583;BME280;66726;52.388;9.986;2023-06-10T01:36:46;101112.41;;;17.55;59.68
77583;BME280;66726;52.388;9.986;2023-06-10T01:39:23;101104.88;;;17.51;60.03
77583;BME280;66726;52.388;9.986;2023-06-10T01:41:58;101102.13;;;17.44;59.91
77583;BME280;66726;52.388;9.986;2023-06-10T01:44:31;101106.28;;;17.47;59.90
77583;BME280;66726;52.388;9.986;2023-06-10T01:47:06;101106.25;;;17.40;60.42
77583;BME280;66726;52.388;9.986;2023-06-10T01:49:39;101106.13;;;17.27;61.23
77583;BME280;66726;52.388;9.986;2023-06-10T01:52:12;101103.81;;;17.24;60.50
77583;BME280;66726;52.388;9.986;2023-06-10T01:54:46;101099.50;;;17.30;60.74
77583;BME280;66726;52.388;9.986;2023-06-10T01:57:19;101099.84;;;17.20;61.17
77583;BME280;66726;52.388;9.986;2023-06-10T01:59:52;101110.66;;;17.20;60.88
77583;BME280;66726;52.388;9.986;2023-06-10T02:02:26;101116.84;;;17.14;61.25
77583;BME280;66726;52.388;9.986;2023-06-10T02:04:59;101116.34;;;17.04;62.07
77583;BME280;66726;52.388;9.986;2023-06-10T02:07:33;101115.03;;;17.00;62.36
77583;BME280;66726;52.388;9.986;2023-06-10T02:10:09;101118.03;;;17.05;61.58
77583;BME280;66726;52.388;9.986;2023-06-10T02:12:42;101114.59;;;16.96;61.97
77583;BME280;66726;52.388;9.986;2023-06-10T02:15:16;101126.25;;;16.97;61.85
77583;BME280;66726;52.388;9.986;2023-06-10T02:17:49;101125.09;;;16.85;62.67
77583;BME280;66726;52.388;9.986;2023-06-10T02:20:23;101132.81;;;16.88;62.70
77583;BME280;66726;52.388;9.986;2023-06-10T02:22:56;101128.94;;;16.76;63.14
77583;BME280;66726;52.388;9.986;2023-06-10T02:25:30;101136.72;;;16.64;63.50
77583;BME280;66726;52.388;9.986;2023-06-10T02:28:03;101128.41;;;16.65;63.73
77583;BME280;66726;52.388;9.986;2023-06-10T02:30:36;101140.38;;;16.56;64.13
77583;BME280;66726;52.388;9.986;2023-06-10T02:33:11;101139.41;;;16.49;64.56
77583;BME280;66726;52.388;9.986;2023-06-10T02:35:45;101136.25;;;16.31;64.80
77583;BME280;66726;52.388;9.986;2023-06-10T02:38:18;101136.16;;;16.39;64.89
77583;BME280;66726;52.388;9.986;2023-06-10T02:40:52;101143.34;;;16.32;64.61
77583;BME280;66726;52.388;9.986;2023-06-10T02:43:25;101142.50;;;16.17;65.85
77583;BME280;66726;52.388;9.986;2023-06-10T02:45:58;101138.59;;;16.05;66.91
77583;BME280;66726;52.388;9.986;2023-06-10T02:48:38;101153.03;;;16.12;66.43
77583;BME280;66726;52.388;9.986;2023-06-10T02:51:13;101146.97;;;16.10;66.56
77583;BME280;66726;52.388;9.986;2023-06-10T02:53:46;101148.09;;;16.01;66.29
77583;BME280;66726;52.388;9.986;2023-06-10T02:56:20;101153.41;;;16.09;66.38
77583;BME280;66726;52.388;9.986;2023-06-10T02:58:54;101160.38;;;16.03;66.46
77583;BME280;66726;52.388;9.986;2023-06-10T03:01:28;101166.38;;;15.99;66.60
77583;BME280;66726;52.388;9.986;2023-06-10T03:04:03;101147.19;;;16.08;65.84
77583;BME280;66726;52.388;9.986;2023-06-10T03:06:40;101153.78;;;16.06;66.25
77583;BME280;66726;52.388;9.986;2023-06-10T03:09:14;101160.47;;;16.10;65.81
77583;BME280;66726;52.388;9.986;2023-06-10T03:11:48;101152.94;;;16.05;65.62
77583;BME280;66726;52.388;9.986;2023-06-10T03:14:21;101153.66;;;15.99;66.55
77583;BME280;66726;52.388;9.986;2023-06-10T03:16:54;101149.19;;;16.06;66.03
77583;BME280;66726;52.388;9.986;2023-06-10T03:19:27;101149.59;;;15.89;67.22
77583;BME280;66726;52.388;9.986;2023-06-10T03:22:13;101149.88;;;15.94;66.18
77583;BME280;66726;52.388;9.986;2023-06-10T03:24:47;101156.00;;;15.88;67.28
77583;BME280;66726;52.388;9.986;2023-06-10T03:27:22;101152.44;;;15.72;67.26
77583;BME280;66726;52.388;9.986;2023-06-10T03:29:55;101155.53;;;15.84;67.37
77583;BME280;66726;52.388;9.986;2023-06-10T03:32:28;101147.59;;;15.83;66.79
77583;BME280;66726;52.388;9.986;2023-06-10T03:35:02;101153.38;;;15.80;67.29
77583;BME280;66726;52.388;9.986;2023-06-10T03:37:35;101154.75;;;15.76;67.38
77583;BME280;66726;52.388;9.986;2023-06-10T03:40:11;101156.06;;;15.65;67.65
77583;BME280;66726;52.388;9.986;2023-06-10T03:42:44;101156.72;;;15.67;67.86
77583;BME280;66726;52.388;9.986;2023-06-10T03:45:17;101169.47;;;15.73;67.34
77583;BME280;66726;52.388;9.986;2023-06-10T03:47:50;101173.38;;;15.70;67.28
77583;BME280;66726;52.388;9.986;2023-06-10T03:50:24;101182.22;;;15.64;67.94
77583;BME280;66726;52.388;9.986;2023-06-10T03:52:59;101189.84;;;15.61;67.90
77583;BME280;66726;52.388;9.986;2023-06-10T03:55:33;101181.72;;;15.38;69.59
77583;BME280;66726;52.388;9.986;2023-06-10T03:58:06;101173.09;;;15.43;69.03
77583;BME280;66726;52.388;9.986;2023-06-10T04:00:39;101179.59;;;15.34;69.47
77583;BME280;66726;52.388;9.986;2023-06-10T04:03:14;101177.91;;;15.33;69.86
77583;BME280;66726;52.388;9.986;2023-06-10T04:05:48;101177.53;;;15.36;70.12
77583;BME280;66726;52.388;9.986;2023-06-10T04:08:22;101180.53;;;15.41;69.25
77583;BME280;66726;52.388;9.986;2023-06-10T04:10:56;101186.16;;;15.31;69.76
77583;BME280;66726;52.388;9.986;2023-06-10T04:13:29;101172.25;;;15.42;69.33
77583;BME280;66726;52.388;9.986;2023-06-10T04:16:03;101169.53;;;15.50;69.18
77583;BME280;66726;52.388;9.986;2023-06-10T04:18:36;101179.59;;;15.56;68.50
77583;BME280;66726;52.388;9.986;2023-06-10T04:21:10;101174.56;;;15.53;69.42
77583;BME280;66726;52.388;9.986;2023-06-10T04:23:43;101173.25;;;15.49;69.07
77583;BME280;66726;52.388;9.986;2023-06-10T04:26:17;101182.34;;;15.48;69.16
77583;BME280;66726;52.388;9.986;2023-06-10T04:28:50;101174.47;;;15.16;71.44
77583;BME280;66726;52.388;9.986;2023-06-10T04:31:23;101179.09;;;15.30;70.59
77583;BME280;66726;52.388;9.986;2023-06-10T04:33:57;101173.88;;;15.29;70.45
77583;BME280;66726;52.388;9.986;2023-06-10T04:36:30;101164.94;;;15.28;70.50
77583;BME280;66726;52.388;9.986;2023-06-10T04:39:04;101167.72;;;15.20;71.81
77583;BME280;66726;52.388;9.986;2023-06-10T04:41:38;101167.00;;;15.26;70.74
77583;BME280;66726;52.388;9.986;2023-06-10T04:44:11;101161.59;;;15.26;70.78
77583;BME280;66726;52.388;9.986;2023-06-10T04:46:45;101170.09;;;15.15;71.66
77583;BME280;66726;52.388;9.986;2023-06-10T04:49:19;101162.22;;;15.13;70.95
77583;BME280;66726;52.388;9.986;2023-06-10T04:51:53;101175.72;;;15.05;71.67
77583;BME280;66726;52.388;9.986;2023-06-10T04:54:26;101172.84;;;15.07;72.38
77583;BME280;66726;52.388;9.986;2023-06-10T04:56:59;101169.50;;;15.05;72.85
77583;BME280;66726;52.388;9.986;2023-06-10T04:59:33;101174.47;;;15.16;72.41
77583;BME280;66726;52.388;9.986;2023-06-10T05:02:09;101163.38;;;15.11;72.26
77583;BME280;66726;52.388;9.986;2023-06-10T05:04:43;101166.69;;;15.21;72.07
77583;BME280;66726;52.388;9.986;2023-06-10T05:07:17;101175.13;;;15.18;72.24
77583;BME280;66726;52.388;9.986;2023-06-10T05:09:50;101179.28;;;15.06;72.90
77583;BME280;66726;52.388;9.986;2023-06-10T05:12:23;101178.16;;;15.23;72.12
77583;BME280;66726;52.388;9.986;2023-06-10T05:14:57;101178.78;;;15.25;72.31
77583;BME280;66726;52.388;9.986;2023-06-10T05:17:31;101183.34;;;15.24;72.62
77583;BME280;66726;52.388;9.986;2023-06-10T05:20:06;101183.41;;;15.16;72.68
77583;BME280;66726;52.388;9.986;2023-06-10T05:22:40;101176.16;;;15.17;73.24
77583;BME280;66726;52.388;9.986;2023-06-10T05:25:13;101188.63;;;15.18;73.19
77583;BME280;66726;52.388;9.986;2023-06-10T05:27:47;101183.03;;;14.97;73.83
77583;BME280;66726;52.388;9.986;2023-06-10T05:30:20;101181.66;;;15.01;73.79
77583;BME280;66726;52.388;9.986;2023-06-10T05:32:53;101187.38;;;15.06;72.99
77583;BME280;66726;52.388;9.986;2023-06-10T05:35:28;101180.75;;;15.08;73.00
77583;BME280;66726;52.388;9.986;2023-06-10T05:38:01;101180.28;;;15.05;73.46
77583;BME280;66726;52.388;9.986;2023-06-10T05:40:35;101183.31;;;15.10;73.26
77583;BME280;66726;52.388;9.986;2023-06-10T05:43:09;101176.75;;;15.04;73.96
77583;BME280;66726;52.388;9.986;2023-06-10T05:45:43;101181.13;;;15.05;73.17
77583;BME280;66726;52.388;9.986;2023-06-10T05:48:16;101179.31;;;14.98;73.42
77583;BME280;66726;52.388;9.986;2023-06-10T05:50:50;101183.31;;;15.10;74.10
77583;BME280;66726;52.388;9.986;2023-06-10T05:53:23;101186.59;;;15.20;73.51
77583;BME280;66726;52.388;9.986;2023-06-10T05:55:57;101178.31;;;15.21;73.37
77583;BME280;66726;52.388;9.986;2023-06-10T05:58:30;101177.78;;;15.26;73.78
77583;BME280;66726;52.388;9.986;2023-06-10T06:01:04;101182.25;;;15.11;73.54
77583;BME280;66726;52.388;9.986;2023-06-10T06:03:37;101178.63;;;15.27;73.03
77583;BME280;66726;52.388;9.986;2023-06-10T06:06:11;101171.84;;;15.31;72.21
77583;BME280;66726;52.388;9.986;2023-06-10T06:08:44;101181.13;;;15.28;72.22
77583;BME280;66726;52.388;9.986;2023-06-10T06:11:17;101181.56;;;15.17;72.99
77583;BME280;66726;52.388;9.986;2023-06-10T06:13:51;101175.03;;;15.34;72.45
77583;BME280;66726;52.388;9.986;2023-06-10T06:16:24;101187.84;;;15.32;72.54
77583;BME280;66726;52.388;9.986;2023-06-10T06:18:58;101190.84;;;15.37;73.05
77583;BME280;66726;52.388;9.986;2023-06-10T06:21:31;101184.25;;;15.40;72.50
77583;BME280;66726;52.388;9.986;2023-06-10T06:24:05;101180.53;;;15.41;73.00
77583;BME280;66726;52.388;9.986;2023-06-10T06:26:38;101183.28;;;15.33;72.59
77583;BME280;66726;52.388;9.986;2023-06-10T06:29:12;101197.22;;;15.44;72.77
77583;BME280;66726;52.388;9.986;2023-06-10T06:31:45;101189.06;;;15.52;72.28
77583;BME280;66726;52.388;9.986;2023-06-10T06:34:18;101179.88;;;15.61;72.01
77583;BME280;66726;52.388;9.986;2023-06-10T06:36:52;101190.75;;;15.53;71.75
77583;BME280;66726;52.388;9.986;2023-06-10T06:39:25;101188.91;;;15.68;71.70
77583;BME280;66726;52.388;9.986;2023-06-10T06:41:59;101190.59;;;15.69;72.17
77583;BME280;66726;52.388;9.986;2023-06-10T06:44:32;101191.34;;;15.63;71.82
77583;BME280;66726;52.388;9.986;2023-06-10T06:47:05;101193.19;;;15.63;72.14
77583;BME280;66726;52.388;9.986;2023-06-10T06:49:39;101188.19;;;15.75;71.16
77583;BME280;66726;52.388;9.986;2023-06-10T06:52:13;101188.09;;;15.83;71.31
77583;BME280;66726;52.388;9.986;2023-06-10T06:54:46;101193.34;;;15.84;71.40
77583;BME280;66726;52.388;9.986;2023-06-10T06:57:19;101191.59;;;15.91;70.89
77583;BME280;66726;52.388;9.986;2023-06-10T06:59:53;101193.38;;;15.99;71.51
77583;BME280;66726;52.388;9.986;2023-06-10T07:02:26;101192.53;;;15.98;70.76
77583;BME280;66726;52.388;9.986;2023-06-10T07:04:59;101194.94;;;16.08;71.78
77583;BME280;66726;52.388;9.986;2023-06-10T07:07:33;101193.09;;;16.08;71.56
77583;BME280;66726;52.388;9.986;2023-06-10T07:10:08;101198.38;;;16.16;70.65
77583;BME280;66726;52.388;9.986;2023-06-10T07:12:42;101195.03;;;16.14;70.42
77583;BME280;66726;52.388;9.986;2023-06-10T07:15:15;101199.78;;;16.27;70.60
77583;BME280;66726;52.388;9.986;2023-06-10T07:17:48;101196.00;;;16.36;70.57
77583;BME280;66726;52.388;9.986;2023-06-10T07:20:22;101194.22;;;16.43;70.28
77583;BME280;66726;52.388;9.986;2023-06-10T07:22:55;101196.81;;;16.51;70.41
77583;BME280;66726;52.388;9.986;2023-06-10T07:25:29;101195.28;;;16.57;70.16
77583;BME280;66726;52.388;9.986;2023-06-10T07:28:02;101200.47;;;16.58;69.92
77583;BME280;66726;52.388;9.986;2023-06-10T07:30:35;101202.69;;;16.69;70.46
77583;BME280;66726;52.388;9.986;2023-06-10T07:33:09;101203.63;;;16.77;69.38
77583;BME280;66726;52.388;9.986;2023-06-10T07:35:43;101213.13;;;16.87;70.03
77583;BME280;66726;52.388;9.986;2023-06-10T07:38:16;101208.94;;;16.85;69.18
77583;BME280;66726;52.388;9.986;2023-06-10T07:40:50;101198.81;;;16.93;69.49
77583;BME280;66726;52.388;9.986;2023-06-10T07:43:23;101188.75;;;17.02;69.78
77583;BME280;66726;52.388;9.986;2023-06-10T07:45:57;101194.41;;;17.07;69.03
77583;BME280;66726;52.388;9.986;2023-06-10T07:48:31;101196.41;;;17.19;69.11
77583;BME280;66726;52.388;9.986;2023-06-10T07:51:04;101192.75;;;17.27;67.99
77583;BME280;66726;52.388;9.986;2023-06-10T07:53:38;101186.88;;;17.23;67.99
77583;BME280;66726;52.388;9.986;2023-06-10T07:56:12;101193.06;;;17.39;68.32
77583;BME280;66726;52.388;9.986;2023-06-10T07:58:45;101190.03;;;17.48;67.19
77583;BME280;66726;52.388;9.986;2023-06-10T08:01:18;101197.00;;;17.57;67.98
77583;BME280;66726;52.388;9.986;2023-06-10T08:03:52;101199.41;;;17.67;67.60
77583;BME280;66726;52.388;9.986;2023-06-10T08:06:25;101191.97;;;17.76;67.73
77583;BME280;66726;52.388;9.986;2023-06-10T08:08:59;101198.91;;;17.85;67.02
77583;BME280;66726;52.388;9.986;2023-06-10T08:11:32;101194.19;;;17.93;67.15
77583;BME280;66726;52.388;9.986;2023-06-10T08:14:05;101194.25;;;18.00;67.23
77583;BME280;66726;52.388;9.986;2023-06-10T08:16:39;101201.84;;;18.11;66.13
77583;BME280;66726;52.388;9.986;2023-06-10T08:19:12;101189.16;;;18.18;66.07
77583;BME280;66726;52.388;9.986;2023-06-10T08:21:46;101192.97;;;18.30;66.21
77583;BME280;66726;52.388;9.986;2023-06-10T08:24:19;101186.34;;;18.39;65.45
77583;BME280;66726;52.388;9.986;2023-06-10T08:26:53;101184.38;;;18.54;64.51
77583;BME280;66726;52.388;9.986;2023-06-10T08:29:28;101189.91;;;18.40;64.89
77583;BME280;66726;52.388;9.986;2023-06-10T08:32:04;101181.25;;;18.57;65.39
77583;BME280;66726;52.388;9.986;2023-06-10T08:34:37;101176.53;;;18.72;65.13
77583;BME280;66726;52.388;9.986;2023-06-10T08:37:11;101177.19;;;18.88;64.95
77583;BME280;66726;52.388;9.986;2023-06-10T08:39:44;101168.28;;;19.00;64.79
77583;BME280;66726;52.388;9.986;2023-06-10T08:42:26;101172.28;;;19.11;64.34
77583;BME280;66726;52.388;9.986;2023-06-10T08:45:02;101181.06;;;19.26;63.31
77583;BME280;66726;52.388;9.986;2023-06-10T08:47:43;101175.25;;;19.42;61.94
77583;BME280;66726;52.388;9.986;2023-06-10T08:50:19;101170.66;;;19.49;62.21
77583;BME280;66726;52.388;9.986;2023-06-10T08:52:59;101179.06;;;19.61;63.47
77583;BME280;66726;52.388;9.986;2023-06-10T08:55:38;101164.44;;;19.68;63.75
77583;BME280;66726;52.388;9.986;2023-06-10T08:58:16;101167.31;;;19.87;61.50
77583;BME280;66726;52.388;9.986;2023-06-10T09:00:52;101166.03;;;20.09;60.02
77583;BME280;66726;52.388;9.986;2023-06-10T09:03:27;101167.47;;;20.24;59.78
77583;BME280;66726;52.388;9.986;2023-06-10T09:06:01;101170.63;;;20.21;59.43
77583;BME280;66726;52.388;9.986;2023-06-10T09:08:36;101164.13;;;20.36;59.87
77583;BME280;66726;52.388;9.986;2023-06-10T09:11:10;101167.19;;;20.59;60.22
77583;BME280;66726;52.388;9.986;2023-06-10T09:13:44;101174.25;;;20.66;58.94
77583;BME280;66726;52.388;9.986;2023-06-10T09:16:17;101164.19;;;20.73;58.61
77583;BME280;66726;52.388;9.986;2023-06-10T09:18:50;101167.72;;;20.81;58.02
77583;BME280;66726;52.388;9.986;2023-06-10T09:21:28;101171.19;;;20.94;58.85
77583;BME280;66726;52.388;9.986;2023-06-10T09:24:02;101158.16;;;21.03;59.32
77583;BME280;66726;52.388;9.986;2023-06-10T09:26:37;101162.34;;;21.43;58.02
77583;BME280;66726;52.388;9.986;2023-06-10T09:29:11;101166.31;;;21.41;57.64
77583;BME280;66726;52.388;9.986;2023-06-10T09:31:46;101165.75;;;21.63;56.47
77583;BME280;66726;52.388;9.986;2023-06-10T09:34:20;101167.13;;;21.72;57.50
77583;BME280;66726;52.388;9.986;2023-06-10T09:36:53;101162.72;;;21.71;57.36
77583;BME280;66726;52.388;9.986;2023-06-10T09:39:27;101167.28;;;21.78;57.54
77583;BME280;66726;52.388;9.986;2023-06-10T09:42:01;101161.75;;;21.91;56.23
77583;BME280;66726;52.388;9.986;2023-06-10T09:44:34;101164.34;;;22.04;56.13
77583;BME280;66726;52.388;9.986;2023-06-10T09:47:09;101168.22;;;22.14;55.64
77583;BME280;66726;52.388;9.986;2023-06-10T09:49:53;101162.38;;;22.11;56.03
77583;BME280;66726;52.388;9.986;2023-06-10T09:52:28;101168.16;;;22.21;55.20
77583;BME280;66726;52.388;9.986;2023-06-10T09:55:07;101155.56;;;22.38;55.50
77583;BME280;66726;52.388;9.986;2023-06-10T09:57:41;101164.53;;;22.45;55.21
77583;BME280;66726;52.388;9.986;2023-06-10T10:00:22;101161.84;;;22.57;56.21
77583;BME280;66726;52.388;9.986;2023-06-10T10:02:57;101162.16;;;22.85;54.73
77583;BME280;66726;52.388;9.986;2023-06-10T10:05:31;101159.38;;;23.03;53.74
77583;BME280;66726;52.388;9.986;2023-06-10T10:08:04;101160.81;;;23.06;54.56
77583;BME280;66726;52.388;9.986;2023-06-10T10:10:38;101163.13;;;23.20;53.13
77583;BME280;66726;52.388;9.986;2023-06-10T10:13:11;101161.59;;;23.36;52.84
77583;BME280;66726;52.388;9.986;2023-06-10T10:15:46;101157.59;;;23.39;53.31
77583;BME280;66726;52.388;9.986;2023-06-10T10:18:25;101169.28;;;23.57;52.96
77583;BME280;66726;52.388;9.986;2023-06-10T10:21:09;101164.91;;;23.68;52.34
77583;BME280;66726;52.388;9.986;2023-06-10T10:23:57;101162.78;;;23.82;53.28
77583;BME280;66726;52.388;9.986;2023-06-10T10:26:36;101161.34;;;23.91;53.55
77583;BME280;66726;52.388;9.986;2023-06-10T10:29:20;101167.19;;;24.06;52.62
77583;BME280;66726;52.388;9.986;2023-06-10T10:32:01;101159.13;;;24.22;51.58
77583;BME280;66726;52.388;9.986;2023-06-10T10:34:48;101161.84;;;24.34;50.69
77583;BME280;66726;52.388;9.986;2023-06-10T10:37:25;101155.84;;;24.49;50.31
77583;BME280;66726;52.388;9.986;2023-06-10T10:40:02;101159.91;;;24.46;50.54
77583;BME280;66726;52.388;9.986;2023-06-10T10:42:38;101163.06;;;24.66;50.01
77583;BME280;66726;52.388;9.986;2023-06-10T10:45:14;101154.13;;;24.71;50.11
77583;BME280;66726;52.388;9.986;2023-06-10T10:47:53;101150.50;;;24.94;48.79
77583;BME280;66726;52.388;9.986;2023-06-10T10:50:31;101152.13;;;25.06;48.86
77583;BME280;66726;52.388;9.986;2023-06-10T10:53:08;101149.81;;;25.15;49.51
77583;BME280;66726;52.388;9.986;2023-06-10T10:55:41;101149.47;;;25.28;48.33
77583;BME280;66726;52.388;9.986;2023-06-10T10:58:17;101146.84;;;25.33;47.61
77583;BME280;66726;52.388;9.986;2023-06-10T11:00:56;101149.09;;;25.36;47.90
77583;BME280;66726;52.388;9.986;2023-06-10T11:03:44;101142.59;;;25.42;47.47
77583;BME280;66726;52.388;9.986;2023-06-10T11:06:22;101142.75;;;25.64;47.62
77583;BME280;66726;52.388;9.986;2023-06-10T11:08:55;101139.47;;;25.84;46.26
77583;BME280;66726;52.388;9.986;2023-06-10T11:11:33;101138.41;;;25.85;45.63
77583;BME280;66726;52.388;9.986;2023-06-10T11:14:13;101136.66;;;25.95;45.54
77583;BME280;66726;52.388;9.986;2023-06-10T11:17:00;101140.44;;;26.11;44.80
77583;BME280;66726;52.388;9.986;2023-06-10T11:19:39;101140.44;;;26.11;44.83
77583;BME280;66726;52.388;9.986;2023-06-10T11:22:21;101136.50;;;26.23;44.75
77583;BME280;66726;52.388;9.986;2023-06-10T11:24:55;101136.59;;;26.50;43.57
77583;BME280;66726;52.388;9.986;2023-06-10T11:27:41;101136.09;;;26.53;44.20
77583;BME280;66726;52.388;9.986;2023-06-10T11:30:27;101122.53;;;26.68;43.60
77583;BME280;66726;52.388;9.986;2023-06-10T11:33:08;101126.63;;;26.88;42.59
77583;BME280;66726;52.388;9.986;2023-06-10T11:35:42;101121.25;;;26.98;42.31
77583;BME280;66726;52.388;9.986;2023-06-10T11:38:17;101120.59;;;27.17;44.10
77583;BME280;66726;52.388;9.986;2023-06-10T11:40:52;101113.59;;;27.32;41.47
77583;BME280;66726;52.388;9.986;2023-06-10T11:43:26;101113.91;;;27.40;41.03
77583;BME280;66726;52.388;9.986;2023-06-10T11:45:59;101123.53;;;27.38;41.38
77583;BME280;66726;52.388;9.986;2023-06-10T11:48:34;101114.03;;;27.50;41.86
77583;BME280;66726;52.388;9.986;2023-06-10T11:51:10;101112.50;;;27.64;40.18
77583;BME280;66726;52.388;9.986;2023-06-10T11:53:45;101108.97;;;27.74;41.38
77583;BME280;66726;52.388;9.986;2023-06-10T11:56:23;101108.31;;;27.94;41.13
77583;BME280;66726;52.388;9.986;2023-06-10T11:58:59;101115.63;;;28.15;39.55
77583;BME280;66726;52.388;9.986;2023-06-10T12:01:40;101106.53;;;28.19;39.94
77583;BME280;66726;52.388;9.986;2023-06-10T12:04:17;101107.44;;;28.35;39.47
77583;BME280;66726;52.388;9.986;2023-06-10T12:06:53;101100.56;;;28.43;39.53
77583;BME280;66726;52.388;9.986;2023-06-10T12:09:28;101102.53;;;28.47;39.44
77583;BME280;66726;52.388;9.986;2023-06-10T12:12:05;101105.06;;;28.59;39.21
77583;BME280;66726;52.388;9.986;2023-06-10T12:14:59;101104.28;;;28.68;37.99
77583;BME280;66726;52.388;9.986;2023-06-10T12:17:42;101099.38;;;28.86;39.04
77583;BME280;66726;52.388;9.986;2023-06-10T12:20:30;101097.72;;;28.95;38.01
77583;BME280;66726;52.388;9.986;2023-06-10T12:23:12;101103.25;;;29.15;36.37
77583;BME280;66726;52.388;9.986;2023-06-10T12:25:57;101091.69;;;29.18;35.97
77583;BME280;66726;52.388;9.986;2023-06-10T12:28:32;101106.03;;;29.25;36.08
77583;BME280;66726;52.388;9.986;2023-06-10T12:31:12;101097.53;;;29.42;37.83
77583;BME280;66726;52.388;9.986;2023-06-10T12:33:45;101077.34;;;29.56;35.80
77583;BME280;66726;52.388;9.986;2023-06-10T12:36:21;101084.53;;;29.67;35.79
77583;BME280;66726;52.388;9.986;2023-06-10T12:39:06;101090.56;;;29.80;35.49
77583;BME280;66726;52.388;9.986;2023-06-10T12:41:42;101083.41;;;29.74;34.43
77583;BME280;66726;52.388;9.986;2023-06-10T12:44:23;101075.13;;;29.89;33.91
77583;BME280;66726;52.388;9.986;2023-06-10T12:47:01;101077.28;;;29.97;35.25
77583;BME280;66726;52.388;9.986;2023-06-10T12:49:34;101078.13;;;29.97;34.78
77583;BME280;66726;52.388;9.986;2023-06-10T12:52:10;101084.44;;;30.13;32.88
77583;BME280;66726;52.388;9.986;2023-06-10T12:54:43;101079.22;;;30.01;33.46
77583;BME280;66726;52.388;9.986;2023-06-10T12:57:17;101080.28;;;30.15;32.90
77583;BME280;66726;52.388;9.986;2023-06-10T12:59:51;101074.50;;;30.17;35.17
77583;BME280;66726;52.388;9.986;2023-06-10T13:02:25;101077.75;;;30.29;34.98
77583;BME280;66726;52.388;9.986;2023-06-10T13:04:59;101068.72;;;30.13;34.86
77583;BME280;66726;52.388;9.986;2023-06-10T13:07:32;101062.25;;;30.33;33.76
77583;BME280;66726;52.388;9.986;2023-06-10T13:10:08;101070.53;;;30.43;35.13
77583;BME280;66726;52.388;9.986;2023-06-10T13:12:42;101075.47;;;30.46;33.32
77583;BME280;66726;52.388;9.986;2023-06-10T13:15:21;101063.22;;;30.62;33.43
77583;BME280;66726;52.388;9.986;2023-06-10T13:17:54;101064.38;;;30.56;33.76
77583;BME280;66726;52.388;9.986;2023-06-10T13:20:28;101061.53;;;30.72;33.36
77583;BME280;66726;52.388;9.986;2023-06-10T13:23:02;101069.72;;;30.87;33.28
77583;BME280;66726;52.388;9.986;2023-06-10T13:25:36;101071.31;;;31.03;34.10
77583;BME280;66726;52.388;9.986;2023-06-10T13:28:09;101069.66;;;30.97;31.90
77583;BME280;66726;52.388;9.986;2023-06-10T13:30:43;101069.47;;;31.22;31.38